sensor_id;sensor_type;location;lat;lon;timestamp;temperature;humidity
2967;DHT22;1493;51.496;7.210;2023-04-01T00:01:54;9.90;99.90
2967;DHT22;1493;51.496;7.210;2023-04-01T00:04:21;9.90;99.90
2967;DHT22;1493;51.496;7.210;2023-04-01T00:06:47;9.90;99.90
2967;DHT22;1493;51.496;7.210;2023-04-01T00:09:15;9.80;99.90
2967;DHT22;1493;51.496;7.210;2023-04-01T00:11:43;9.80;99.90
2967;DHT22;1493;51.496;7.210;2023-04-01T00:14:14;9.80;99.90
2967;DHT22;1493;51.496;7.210;2023-04-01T00:16:40;9.90;99.90
2967;DHT22;1493;51.496;7.210;2023-04-01T00:19:07;9.90;99.90
2967;DHT22;1493;51.496;7.210;2023-04-01T00:21:34;9.90;99.90
2967;DHT22;1493;51.496;7.210;2023-04-01T00:24:02;9.90;99.90
2967;DHT22;1493;51.496;7.210;2023-04-01T00:26:29;9.80;99.90
2967;DHT22;1493;51.496;7.210;2023-04-01T00:28:58;9.80;99.90
2967;DHT22;1493;51.496;7.210;2023-04-01T00:31:26;9.80;99.90
2967;DHT22;1493;51.496;7.210;2023-04-01T00:33:53;9.80;99.90
2967;DHT22;1493;51.496;7.210;2023-04-01T00:36:21;9.80;99.90
2967;DHT22;1493;51.496;7.210;2023-04-01T00:38:48;9.80;99.90
2967;DHT22;1493;51.496;7.210;2023-04-01T00:41:16;9.80;99.90
2967;DHT22;1493;51.496;7.210;2023-04-01T00:43:44;9.80;99.90
2967;DHT22;1493;51.496;7.210;2023-04-01T00:46:13;9.80;99.90
2967;DHT22;1493;51.496;7.210;2023-04-01T00:48:42;9.80;99.90
2967;DHT22;1493;51.496;7.210;2023-04-01T00:51:13;9.80;99.90
2967;DHT22;1493;51.496;7.210;2023-04-01T00:53:43;9.80;99.90
2967;DHT22;1493;51.496;7.210;2023-04-01T00:56:12;9.80;99.90
2967;DHT22;1493;51.496;7.210;2023-04-01T00:58:42;9.80;99.90
2967;DHT22;1493;51.496;7.210;2023-04-01T01:01:10;9.70;99.90
2967;DHT22;1493;51.496;7.210;2023-04-01T01:03:38;9.80;99.90
2967;DHT22;1493;51.496;7.210;2023-04-01T01:06:11;9.70;99.90
2967;DHT22;1493;51.496;7.210;2023-04-01T01:09:29;9.70;99.90
2967;DHT22;1493;51.496;7.210;2023-04-01T01:12:03;9.70;99.90
2967;DHT22;1493;51.496;7.210;2023-04-01T01:14:45;9.80;99.90
2967;DHT22;1493;51.496;7.210;2023-04-01T01:17:22;9.80;99.90
2967;DHT22;1493;51.496;7.210;2023-04-01T01:25:44;9.70;99.90
2967;DHT22;1493;51.496;7.210;2023-04-01T01:28:26;9.60;99.90
2967;DHT22;1493;51.496;7.210;2023-04-01T01:31:00;9.70;99.90
2967;DHT22;1493;51.496;7.210;2023-04-01T01:33:45;9.70;99.90
2967;DHT22;1493;51.496;7.210;2023-04-01T01:36:19;9.70;99.90
2967;DHT22;1493;51.496;7.210;2023-04-01T01:38:47;9.70;99.90
2967;DHT22;1493;51.496;7.210;2023-04-01T01:41:16;9.70;99.90
2967;DHT22;1493;51.496;7.210;2023-04-01T01:43:46;9.70;99.90
2967;DHT22;1493;51.496;7.210;2023-04-01T01:46:16;9.80;99.90
2967;DHT22;1493;51.496;7.210;2023-04-01T01:48:44;9.80;99.90
2967;DHT22;1493;51.496;7.210;2023-04-01T01:51:12;9.70;99.90
2967;DHT22;1493;51.496;7.210;2023-04-01T01:53:40;9.70;99.90
2967;DHT22;1493;51.496;7.210;2023-04-01T01:56:07;9.70;99.90
2967;DHT22;1493;51.496;7.210;2023-04-01T01:58:36;9.70;99.90
2967;DHT22;1493;51.496;7.210;2023-04-01T02:01:08;9.70;99.90
2967;DHT22;1493;51.496;7.210;2023-04-01T02:03:37;9.70;99.90
2967;DHT22;1493;51.496;7.210;2023-04-01T02:06:07;9.70;99.90
2967;DHT22;1493;51.496;7.210;2023-04-01T02:08:39;9.70;99.90
2967;DHT22;1493;51.496;7.210;2023-04-01T02:11:09;9.70;99.90
2967;DHT22;1493;51.496;7.210;2023-04-01T02:13:40;9.70;99.90
2967;DHT22;1493;51.496;7.210;2023-04-01T02:16:12;9.70;99.90
2967;DHT22;1493;51.496;7.210;2023-04-01T02:18:40;9.70;99.90
2967;DHT22;1493;51.496;7.210;2023-04-01T02:21:09;9.60;99.90
2967;DHT22;1493;51.496;7.210;2023-04-01T02:23:36;9.60;99.90
2967;DHT22;1493;51.496;7.210;2023-04-01T02:26:06;9.60;99.90
2967;DHT22;1493;51.496;7.210;2023-04-01T02:28:34;9.60;99.90
2967;DHT22;1493;51.496;7.210;2023-04-01T02:31:03;9.60;99.90
2967;DHT22;1493;51.496;7.210;2023-04-01T02:33:31;9.60;99.90
2967;DHT22;1493;51.496;7.210;2023-04-01T02:35:58;9.60;99.90
2967;DHT22;1493;51.496;7.210;2023-04-01T02:38:25;9.60;99.90
2967;DHT22;1493;51.496;7.210;2023-04-01T02:40:57;9.60;99.90
2967;DHT22;1493;51.496;7.210;2023-04-01T02:43:27;9.60;99.90
2967;DHT22;1493;51.496;7.210;2023-04-01T02:45:54;9.60;99.90
2967;DHT22;1493;51.496;7.210;2023-04-01T02:48:21;9.60;99.90
2967;DHT22;1493;51.496;7.210;2023-04-01T02:50:48;9.60;99.90
2967;DHT22;1493;51.496;7.210;2023-04-01T02:53:15;9.50;99.90
2967;DHT22;1493;51.496;7.210;2023-04-01T02:55:42;9.60;99.90
2967;DHT22;1493;51.496;7.210;2023-04-01T02:58:10;9.60;99.90
2967;DHT22;1493;51.496;7.210;2023-04-01T03:00:38;9.60;99.90
2967;DHT22;1493;51.496;7.210;2023-04-01T03:03:05;9.50;99.90
2967;DHT22;1493;51.496;7.210;2023-04-01T03:05:32;9.50;99.90
2967;DHT22;1493;51.496;7.210;2023-04-01T03:07:58;9.50;99.90
2967;DHT22;1493;51.496;7.210;2023-04-01T03:10:25;9.50;99.90
2967;DHT22;1493;51.496;7.210;2023-04-01T03:12:52;9.50;99.90
2967;DHT22;1493;51.496;7.210;2023-04-01T03:15:19;9.60;99.90
2967;DHT22;1493;51.496;7.210;2023-04-01T03:17:47;9.60;99.90
2967;DHT22;1493;51.496;7.210;2023-04-01T03:20:14;9.60;99.90
2967;DHT22;1493;51.496;7.210;2023-04-01T03:22:41;9.60;99.90
2967;DHT22;1493;51.496;7.210;2023-04-01T03:25:10;9.60;99.90
2967;DHT22;1493;51.496;7.210;2023-04-01T03:27:37;9.60;99.90
2967;DHT22;1493;51.496;7.210;2023-04-01T03:30:05;9.60;99.90
2967;DHT22;1493;51.496;7.210;2023-04-01T03:32:32;9.60;99.90
2967;DHT22;1493;51.496;7.210;2023-04-01T03:35:01;9.60;99.90
2967;DHT22;1493;51.496;7.210;2023-04-01T03:37:27;9.60;99.90
2967;DHT22;1493;51.496;7.210;2023-04-01T03:39:54;9.70;99.90
2967;DHT22;1493;51.496;7.210;2023-04-01T03:42:21;9.80;99.90
2967;DHT22;1493;51.496;7.210;2023-04-01T03:44:48;9.70;99.90
2967;DHT22;1493;51.496;7.210;2023-04-01T03:47:15;9.70;99.90
2967;DHT22;1493;51.496;7.210;2023-04-01T03:49:42;9.70;99.90
2967;DHT22;1493;51.496;7.210;2023-04-01T03:52:10;9.70;99.90
2967;DHT22;1493;51.496;7.210;2023-04-01T03:54:37;9.70;99.90
2967;DHT22;1493;51.496;7.210;2023-04-01T03:57:04;9.60;99.90
2967;DHT22;1493;51.496;7.210;2023-04-01T03:59:31;9.70;99.90
2967;DHT22;1493;51.496;7.210;2023-04-01T04:01:58;9.70;99.90
2967;DHT22;1493;51.496;7.210;2023-04-01T04:04:25;9.70;99.90
2967;DHT22;1493;51.496;7.210;2023-04-01T04:06:53;9.60;99.90
2967;DHT22;1493;51.496;7.210;2023-04-01T04:09:21;9.60;99.90
2967;DHT22;1493;51.496;7.210;2023-04-01T04:11:48;9.70;99.90
2967;DHT22;1493;51.496;7.210;2023-04-01T04:14:15;9.70;99.90
2967;DHT22;1493;51.496;7.210;2023-04-01T04:16:42;9.70;99.90
2967;DHT22;1493;51.496;7.210;2023-04-01T04:19:09;9.70;99.90
2967;DHT22;1493;51.496;7.210;2023-04-01T04:21:36;9.60;99.90
2967;DHT22;1493;51.496;7.210;2023-04-01T04:24:03;9.60;99.90
2967;DHT22;1493;51.496;7.210;2023-04-01T04:26:31;9.60;99.90
2967;DHT22;1493;51.496;7.210;2023-04-01T04:28:58;9.70;99.90
2967;DHT22;1493;51.496;7.210;2023-04-01T04:31:26;9.60;99.90
2967;DHT22;1493;51.496;7.210;2023-04-01T04:33:53;9.70;99.90
2967;DHT22;1493;51.496;7.210;2023-04-01T04:36:20;9.70;99.90
2967;DHT22;1493;51.496;7.210;2023-04-01T04:38:48;9.70;99.90
2967;DHT22;1493;51.496;7.210;2023-04-01T04:41:16;9.70;99.90
2967;DHT22;1493;51.496;7.210;2023-04-01T04:43:51;9.60;99.90
2967;DHT22;1493;51.496;7.210;2023-04-01T04:46:19;9.60;99.90
2967;DHT22;1493;51.496;7.210;2023-04-01T04:48:46;9.60;99.90
2967;DHT22;1493;51.496;7.210;2023-04-01T04:51:14;9.60;99.90
2967;DHT22;1493;51.496;7.210;2023-04-01T04:53:41;9.60;99.90
2967;DHT22;1493;51.496;7.210;2023-04-01T04:56:08;9.60;99.90
2967;DHT22;1493;51.496;7.210;2023-04-01T04:58:35;9.60;99.90
2967;DHT22;1493;51.496;7.210;2023-04-01T05:01:07;9.70;99.90
2967;DHT22;1493;51.496;7.210;2023-04-01T05:03:34;9.60;99.90
2967;DHT22;1493;51.496;7.210;2023-04-01T05:06:01;9.60;99.90
2967;DHT22;1493;51.496;7.210;2023-04-01T05:08:28;9.60;99.90
2967;DHT22;1493;51.496;7.210;2023-04-01T05:10:56;9.70;99.90
2967;DHT22;1493;51.496;7.210;2023-04-01T05:13:22;9.60;99.90
2967;DHT22;1493;51.496;7.210;2023-04-01T05:15:49;9.70;99.90
2967;DHT22;1493;51.496;7.210;2023-04-01T05:18:17;9.60;99.90
2967;DHT22;1493;51.496;7.210;2023-04-01T05:20:48;9.70;99.90
2967;DHT22;1493;51.496;7.210;2023-04-01T05:23:15;9.70;99.90
2967;DHT22;1493;51.496;7.210;2023-04-01T05:25:42;9.70;99.90
2967;DHT22;1493;51.496;7.210;2023-04-01T05:28:10;9.70;99.90
2967;DHT22;1493;51.496;7.210;2023-04-01T05:30:39;9.70;99.90
2967;DHT22;1493;51.496;7.210;2023-04-01T05:33:06;9.80;99.90
2967;DHT22;1493;51.496;7.210;2023-04-01T05:35:34;9.80;99.90
2967;DHT22;1493;51.496;7.210;2023-04-01T05:38:01;9.80;99.90
2967;DHT22;1493;51.496;7.210;2023-04-01T05:40:32;9.80;99.90
2967;DHT22;1493;51.496;7.210;2023-04-01T05:42:59;9.80;99.90
2967;DHT22;1493;51.496;7.210;2023-04-01T05:45:25;9.80;99.90
2967;DHT22;1493;51.496;7.210;2023-04-01T05:47:54;9.90;99.90
2967;DHT22;1493;51.496;7.210;2023-04-01T05:50:21;9.90;99.90
2967;DHT22;1493;51.496;7.210;2023-04-01T05:52:49;9.90;99.90
2967;DHT22;1493;51.496;7.210;2023-04-01T05:55:16;9.80;99.90
2967;DHT22;1493;51.496;7.210;2023-04-01T05:57:44;9.80;99.90
2967;DHT22;1493;51.496;7.210;2023-04-01T06:00:12;9.90;99.90
2967;DHT22;1493;51.496;7.210;2023-04-01T06:02:39;9.90;99.90
2967;DHT22;1493;51.496;7.210;2023-04-01T06:05:14;9.90;99.90
2967;DHT22;1493;51.496;7.210;2023-04-01T06:07:43;9.90;99.90
2967;DHT22;1493;51.496;7.210;2023-04-01T06:10:14;9.90;99.90
2967;DHT22;1493;51.496;7.210;2023-04-01T06:12:51;9.90;99.90
2967;DHT22;1493;51.496;7.210;2023-04-01T06:15:32;9.90;99.90
2967;DHT22;1493;51.496;7.210;2023-04-01T06:21:15;9.90;99.90
2967;DHT22;1493;51.496;7.210;2023-04-01T06:23:55;10.00;99.90
2967;DHT22;1493;51.496;7.210;2023-04-01T06:26:30;10.10;99.90
2967;DHT22;1493;51.496;7.210;2023-04-01T06:29:35;10.00;99.90
2967;DHT22;1493;51.496;7.210;2023-04-01T06:32:26;10.00;99.90
2967;DHT22;1493;51.496;7.210;2023-04-01T06:35:06;9.90;99.90
2967;DHT22;1493;51.496;7.210;2023-04-01T06:37:50;10.00;99.90
2967;DHT22;1493;51.496;7.210;2023-04-01T06:43:27;10.00;99.90
2967;DHT22;1493;51.496;7.210;2023-04-01T06:46:06;10.10;99.90
2967;DHT22;1493;51.496;7.210;2023-04-01T06:48:47;10.10;99.90
2967;DHT22;1493;51.496;7.210;2023-04-01T06:51:27;10.10;99.90
2967;DHT22;1493;51.496;7.210;2023-04-01T06:54:03;10.10;99.90
2967;DHT22;1493;51.496;7.210;2023-04-01T06:56:32;10.00;99.90
2967;DHT22;1493;51.496;7.210;2023-04-01T06:59:04;10.00;99.90
2967;DHT22;1493;51.496;7.210;2023-04-01T07:01:34;9.90;99.90
2967;DHT22;1493;51.496;7.210;2023-04-01T07:04:05;10.00;99.90
2967;DHT22;1493;51.496;7.210;2023-04-01T07:06:36;10.00;99.90
2967;DHT22;1493;51.496;7.210;2023-04-01T07:09:08;10.00;99.90
2967;DHT22;1493;51.496;7.210;2023-04-01T07:11:37;9.90;99.90
2967;DHT22;1493;51.496;7.210;2023-04-01T07:14:13;9.90;99.90
2967;DHT22;1493;51.496;7.210;2023-04-01T07:16:44;10.00;99.90
2967;DHT22;1493;51.496;7.210;2023-04-01T07:19:18;10.00;99.90
2967;DHT22;1493;51.496;7.210;2023-04-01T07:21:48;10.10;99.90
2967;DHT22;1493;51.496;7.210;2023-04-01T07:24:21;10.20;99.90
2967;DHT22;1493;51.496;7.210;2023-04-01T07:26:53;10.20;99.90
2967;DHT22;1493;51.496;7.210;2023-04-01T07:29:23;10.20;99.90
2967;DHT22;1493;51.496;7.210;2023-04-01T07:32:05;10.20;99.90
2967;DHT22;1493;51.496;7.210;2023-04-01T07:34:38;10.20;99.90
2967;DHT22;1493;51.496;7.210;2023-04-01T07:37:10;10.10;99.90
2967;DHT22;1493;51.496;7.210;2023-04-01T07:39:45;10.20;99.90
2967;DHT22;1493;51.496;7.210;2023-04-01T07:42:23;10.30;99.90
2967;DHT22;1493;51.496;7.210;2023-04-01T07:44:59;10.40;99.90
2967;DHT22;1493;51.496;7.210;2023-04-01T07:47:39;10.40;99.90
2967;DHT22;1493;51.496;7.210;2023-04-01T07:50:17;10.40;99.90
2967;DHT22;1493;51.496;7.210;2023-04-01T07:52:54;10.30;99.90
2967;DHT22;1493;51.496;7.210;2023-04-01T07:55:26;10.40;99.90
2967;DHT22;1493;51.496;7.210;2023-04-01T07:57:59;10.40;99.90
2967;DHT22;1493;51.496;7.210;2023-04-01T08:00:34;10.40;99.90
2967;DHT22;1493;51.496;7.210;2023-04-01T08:03:15;10.40;99.90
2967;DHT22;1493;51.496;7.210;2023-04-01T08:05:53;10.50;99.90
2967;DHT22;1493;51.496;7.210;2023-04-01T08:08:28;10.60;99.90
2967;DHT22;1493;51.496;7.210;2023-04-01T08:11:04;10.70;99.90
2967;DHT22;1493;51.496;7.210;2023-04-01T08:13:39;10.60;99.90
2967;DHT22;1493;51.496;7.210;2023-04-01T08:16:14;10.60;99.90
2967;DHT22;1493;51.496;7.210;2023-04-01T08:18:50;10.60;99.90
2967;DHT22;1493;51.496;7.210;2023-04-01T08:21:23;10.60;99.90
2967;DHT22;1493;51.496;7.210;2023-04-01T08:23:52;10.50;99.90
2967;DHT22;1493;51.496;7.210;2023-04-01T08:26:29;10.60;99.90
2967;DHT22;1493;51.496;7.210;2023-04-01T08:29:00;10.80;99.90
2967;DHT22;1493;51.496;7.210;2023-04-01T08:31:32;10.60;99.90
2967;DHT22;1493;51.496;7.210;2023-04-01T08:34:01;10.60;99.90
2967;DHT22;1493;51.496;7.210;2023-04-01T08:36:34;10.70;99.90
2967;DHT22;1493;51.496;7.210;2023-04-01T08:39:05;10.70;99.90
2967;DHT22;1493;51.496;7.210;2023-04-01T08:41:52;10.70;99.90
2967;DHT22;1493;51.496;7.210;2023-04-01T08:44:39;10.70;99.90
2967;DHT22;1493;51.496;7.210;2023-04-01T08:50:49;10.60;99.90
2967;DHT22;1493;51.496;7.210;2023-04-01T08:53:27;10.50;99.90
2967;DHT22;1493;51.496;7.210;2023-04-01T08:56:06;10.50;99.90
2967;DHT22;1493;51.496;7.210;2023-04-01T09:01:46;10.50;99.90
2967;DHT22;1493;51.496;7.210;2023-04-01T09:04:26;10.50;99.90
2967;DHT22;1493;51.496;7.210;2023-04-01T09:07:07;10.50;99.90
2967;DHT22;1493;51.496;7.210;2023-04-01T09:12:52;10.40;99.90
2967;DHT22;1493;51.496;7.210;2023-04-01T09:15:37;10.40;99.90
2967;DHT22;1493;51.496;7.210;2023-04-01T09:18:45;10.30;99.90
2967;DHT22;1493;51.496;7.210;2023-04-01T09:21:28;10.40;99.90
2967;DHT22;1493;51.496;7.210;2023-04-01T09:27:26;10.30;99.90
2967;DHT22;1493;51.496;7.210;2023-04-01T09:33:11;10.30;99.90
2967;DHT22;1493;51.496;7.210;2023-04-01T09:35:46;10.40;99.90
2967;DHT22;1493;51.496;7.210;2023-04-01T09:38:22;10.40;99.90
2967;DHT22;1493;51.496;7.210;2023-04-01T09:40:55;10.50;99.90
2967;DHT22;1493;51.496;7.210;2023-04-01T09:43:28;10.60;99.90
2967;DHT22;1493;51.496;7.210;2023-04-01T09:46:10;10.60;99.90
2967;DHT22;1493;51.496;7.210;2023-04-01T09:48:52;10.60;99.90
2967;DHT22;1493;51.496;7.210;2023-04-01T09:51:28;10.70;99.90
2967;DHT22;1493;51.496;7.210;2023-04-01T09:54:07;10.80;99.90
2967;DHT22;1493;51.496;7.210;2023-04-01T09:57:00;11.00;99.90
2967;DHT22;1493;51.496;7.210;2023-04-01T09:59:49;11.10;99.90
2967;DHT22;1493;51.496;7.210;2023-04-01T10:05:54;11.10;99.90
2967;DHT22;1493;51.496;7.210;2023-04-01T10:08:41;11.10;99.90
2967;DHT22;1493;51.496;7.210;2023-04-01T10:14:34;11.10;99.90
2967;DHT22;1493;51.496;7.210;2023-04-01T10:20:38;11.00;99.90
2967;DHT22;1493;51.496;7.210;2023-04-01T10:23:21;10.90;99.90
2967;DHT22;1493;51.496;7.210;2023-04-01T10:26:25;11.00;99.90
2967;DHT22;1493;51.496;7.210;2023-04-01T10:38:40;10.90;99.90
2967;DHT22;1493;51.496;7.210;2023-04-01T10:41:40;11.00;99.90
2967;DHT22;1493;51.496;7.210;2023-04-01T10:44:56;10.90;99.90
2967;DHT22;1493;51.496;7.210;2023-04-01T10:50:43;11.30;99.90
2967;DHT22;1493;51.496;7.210;2023-04-01T10:53:34;11.30;99.90
2967;DHT22;1493;51.496;7.210;2023-04-01T10:56:28;11.30;99.90
2967;DHT22;1493;51.496;7.210;2023-04-01T11:08:32;11.20;99.90
2967;DHT22;1493;51.496;7.210;2023-04-01T11:14:32;11.10;99.90
2967;DHT22;1493;51.496;7.210;2023-04-01T11:17:36;11.10;99.90
2967;DHT22;1493;51.496;7.210;2023-04-01T11:20:34;11.10;99.90
2967;DHT22;1493;51.496;7.210;2023-04-01T11:23:27;11.20;99.90
2967;DHT22;1493;51.496;7.210;2023-04-01T11:26:02;11.20;99.90
2967;DHT22;1493;51.496;7.210;2023-04-01T11:28:51;11.20;99.90
2967;DHT22;1493;51.496;7.210;2023-04-01T11:31:33;11.20;99.90
2967;DHT22;1493;51.496;7.210;2023-04-01T11:34:09;11.20;99.90
2967;DHT22;1493;51.496;7.210;2023-04-01T11:36:46;11.10;99.90
2967;DHT22;1493;51.496;7.210;2023-04-01T11:39:22;11.10;99.90
2967;DHT22;1493;51.496;7.210;2023-04-01T11:42:01;11.10;99.90
2967;DHT22;1493;51.496;7.210;2023-04-01T11:44:31;11.20;99.90
2967;DHT22;1493;51.496;7.210;2023-04-01T11:47:20;11.20;99.90
2967;DHT22;1493;51.496;7.210;2023-04-01T11:50:01;11.20;99.90
2967;DHT22;1493;51.496;7.210;2023-04-01T11:52:42;11.20;99.90
2967;DHT22;1493;51.496;7.210;2023-04-01T11:55:21;11.30;99.90
2967;DHT22;1493;51.496;7.210;2023-04-01T11:58:02;11.40;99.90
2967;DHT22;1493;51.496;7.210;2023-04-01T12:03:46;11.60;99.90
2967;DHT22;1493;51.496;7.210;2023-04-01T12:06:22;11.60;99.90
2967;DHT22;1493;51.496;7.210;2023-04-01T12:08:57;11.50;99.90
2967;DHT22;1493;51.496;7.210;2023-04-01T12:11:33;11.40;99.90
2967;DHT22;1493;51.496;7.210;2023-04-01T12:14:10;11.30;99.90
2967;DHT22;1493;51.496;7.210;2023-04-01T12:16:50;11.20;99.90
2967;DHT22;1493;51.496;7.210;2023-04-01T12:19:24;11.30;99.90
2967;DHT22;1493;51.496;7.210;2023-04-01T12:22:03;11.20;99.90
2967;DHT22;1493;51.496;7.210;2023-04-01T12:24:46;11.20;99.90
2967;DHT22;1493;51.496;7.210;2023-04-01T12:27:23;11.20;99.90
2967;DHT22;1493;51.496;7.210;2023-04-01T12:30:26;11.30;99.90
2967;DHT22;1493;51.496;7.210;2023-04-01T12:33:10;11.30;99.90
2967;DHT22;1493;51.496;7.210;2023-04-01T12:35:53;11.20;99.90
2967;DHT22;1493;51.496;7.210;2023-04-01T12:38:30;11.20;99.90
2967;DHT22;1493;51.496;7.210;2023-04-01T12:41:09;11.20;99.90
2967;DHT22;1493;51.496;7.210;2023-04-01T12:44:04;11.30;99.90
2967;DHT22;1493;51.496;7.210;2023-04-01T12:46:47;11.40;99.90
2967;DHT22;1493;51.496;7.210;2023-04-01T12:49:34;11.70;99.90
2967;DHT22;1493;51.496;7.210;2023-04-01T12:52:09;12.00;99.90
2967;DHT22;1493;51.496;7.210;2023-04-01T12:58:00;12.20;99.90
2967;DHT22;1493;51.496;7.210;2023-04-01T13:00:49;12.20;99.90
2967;DHT22;1493;51.496;7.210;2023-04-01T13:03:41;12.00;99.90
2967;DHT22;1493;51.496;7.210;2023-04-01T13:06:30;11.90;99.90
2967;DHT22;1493;51.496;7.210;2023-04-01T13:09:06;11.80;99.90
2967;DHT22;1493;51.496;7.210;2023-04-01T13:11:50;11.60;99.90
2967;DHT22;1493;51.496;7.210;2023-04-01T13:14:35;11.60;99.90
2967;DHT22;1493;51.496;7.210;2023-04-01T13:17:11;11.50;99.90
2967;DHT22;1493;51.496;7.210;2023-04-01T13:19:46;11.50;99.90
2967;DHT22;1493;51.496;7.210;2023-04-01T13:22:18;11.40;99.90
2967;DHT22;1493;51.496;7.210;2023-04-01T13:24:51;11.40;99.90
2967;DHT22;1493;51.496;7.210;2023-04-01T13:27:25;11.40;99.90
2967;DHT22;1493;51.496;7.210;2023-04-01T13:30:04;11.30;99.90
2967;DHT22;1493;51.496;7.210;2023-04-01T13:32:44;11.40;99.90
2967;DHT22;1493;51.496;7.210;2023-04-01T13:38:31;11.60;99.90
2967;DHT22;1493;51.496;7.210;2023-04-01T13:41:07;11.60;99.90
2967;DHT22;1493;51.496;7.210;2023-04-01T13:43:37;11.60;99.90
2967;DHT22;1493;51.496;7.210;2023-04-01T13:46:25;11.60;99.90
2967;DHT22;1493;51.496;7.210;2023-04-01T13:49:08;11.60;99.90
2967;DHT22;1493;51.496;7.210;2023-04-01T13:52:07;11.60;99.90
2967;DHT22;1493;51.496;7.210;2023-04-01T13:54:59;11.60;99.90
2967;DHT22;1493;51.496;7.210;2023-04-01T13:57:48;11.60;99.90
2967;DHT22;1493;51.496;7.210;2023-04-01T14:00:28;11.60;99.90
2967;DHT22;1493;51.496;7.210;2023-04-01T14:03:26;11.60;99.90
2967;DHT22;1493;51.496;7.210;2023-04-01T14:06:05;11.50;99.90
2967;DHT22;1493;51.496;7.210;2023-04-01T14:11:34;11.40;99.90
2967;DHT22;1493;51.496;7.210;2023-04-01T14:14:13;11.40;99.90
2967;DHT22;1493;51.496;7.210;2023-04-01T14:17:06;11.40;99.90
2967;DHT22;1493;51.496;7.210;2023-04-01T14:19:58;11.30;99.90
2967;DHT22;1493;51.496;7.210;2023-04-01T14:22:35;11.30;99.90
2967;DHT22;1493;51.496;7.210;2023-04-01T14:25:34;11.40;99.90
2967;DHT22;1493;51.496;7.210;2023-04-01T14:28:14;11.30;99.90
2967;DHT22;1493;51.496;7.210;2023-04-01T14:31:00;11.30;99.90
2967;DHT22;1493;51.496;7.210;2023-04-01T14:33:39;11.20;99.90
2967;DHT22;1493;51.496;7.210;2023-04-01T14:36:33;11.20;99.90
2967;DHT22;1493;51.496;7.210;2023-04-01T14:39:19;11.10;99.90
2967;DHT22;1493;51.496;7.210;2023-04-01T14:42:02;11.00;99.90
2967;DHT22;1493;51.496;7.210;2023-04-01T14:44:57;11.00;99.90
2967;DHT22;1493;51.496;7.210;2023-04-01T14:47:46;11.00;99.90
2967;DHT22;1493;51.496;7.210;2023-04-01T14:50:17;11.00;99.90
2967;DHT22;1493;51.496;7.210;2023-04-01T14:52:49;11.00;99.90
2967;DHT22;1493;51.496;7.210;2023-04-01T14:55:25;11.10;99.90
2967;DHT22;1493;51.496;7.210;2023-04-01T14:58:08;11.30;99.90
2967;DHT22;1493;51.496;7.210;2023-04-01T15:00:48;11.40;99.90
2967;DHT22;1493;51.496;7.210;2023-04-01T15:03:20;11.50;99.90
2967;DHT22;1493;51.496;7.210;2023-04-01T15:05:51;11.50;99.90
2967;DHT22;1493;51.496;7.210;2023-04-01T15:08:21;11.50;99.90
2967;DHT22;1493;51.496;7.210;2023-04-01T15:14:01;11.50;99.90
2967;DHT22;1493;51.496;7.210;2023-04-01T15:16:36;11.40;99.90
2967;DHT22;1493;51.496;7.210;2023-04-01T15:19:14;11.40;99.90
2967;DHT22;1493;51.496;7.210;2023-04-01T15:21:59;11.40;99.90
2967;DHT22;1493;51.496;7.210;2023-04-01T15:24:41;11.40;99.90
2967;DHT22;1493;51.496;7.210;2023-04-01T15:27:19;11.50;99.90
2967;DHT22;1493;51.496;7.210;2023-04-01T15:30:12;11.50;99.90
2967;DHT22;1493;51.496;7.210;2023-04-01T15:32:55;11.60;99.90
2967;DHT22;1493;51.496;7.210;2023-04-01T15:35:36;11.60;99.90
2967;DHT22;1493;51.496;7.210;2023-04-01T15:38:06;11.50;99.90
2967;DHT22;1493;51.496;7.210;2023-04-01T15:40:42;11.50;99.90
2967;DHT22;1493;51.496;7.210;2023-04-01T15:43:20;11.60;99.90
2967;DHT22;1493;51.496;7.210;2023-04-01T15:45:58;11.40;99.90
2967;DHT22;1493;51.496;7.210;2023-04-01T15:48:40;11.40;99.90
2967;DHT22;1493;51.496;7.210;2023-04-01T15:54:13;11.30;99.90
2967;DHT22;1493;51.496;7.210;2023-04-01T15:56:52;11.30;99.90
2967;DHT22;1493;51.496;7.210;2023-04-01T15:59:38;11.20;99.90
2967;DHT22;1493;51.496;7.210;2023-04-01T16:02:15;11.30;99.90
2967;DHT22;1493;51.496;7.210;2023-04-01T16:04:52;11.30;99.90
2967;DHT22;1493;51.496;7.210;2023-04-01T16:07:42;11.30;99.90
2967;DHT22;1493;51.496;7.210;2023-04-01T16:10:21;11.10;99.90
2967;DHT22;1493;51.496;7.210;2023-04-01T16:13:02;11.20;99.90
2967;DHT22;1493;51.496;7.210;2023-04-01T16:15:37;11.10;99.90
2967;DHT22;1493;51.496;7.210;2023-04-01T16:18:38;11.10;99.90
2967;DHT22;1493;51.496;7.210;2023-04-01T16:21:19;11.00;99.90
2967;DHT22;1493;51.496;7.210;2023-04-01T16:23:50;11.00;99.90
2967;DHT22;1493;51.496;7.210;2023-04-01T16:26:23;11.00;99.90
2967;DHT22;1493;51.496;7.210;2023-04-01T16:28:55;11.10;99.90
2967;DHT22;1493;51.496;7.210;2023-04-01T16:31:30;11.20;99.90
2967;DHT22;1493;51.496;7.210;2023-04-01T16:34:03;11.20;99.90
2967;DHT22;1493;51.496;7.210;2023-04-01T16:36:37;11.30;99.90
2967;DHT22;1493;51.496;7.210;2023-04-01T16:39:19;11.30;99.90
2967;DHT22;1493;51.496;7.210;2023-04-01T16:41:51;11.30;99.90
2967;DHT22;1493;51.496;7.210;2023-04-01T16:44:21;11.20;99.90
2967;DHT22;1493;51.496;7.210;2023-04-01T16:46:51;11.30;99.90
2967;DHT22;1493;51.496;7.210;2023-04-01T16:49:30;11.30;99.90
2967;DHT22;1493;51.496;7.210;2023-04-01T16:52:12;11.30;99.90
2967;DHT22;1493;51.496;7.210;2023-04-01T16:54:44;11.30;99.90
2967;DHT22;1493;51.496;7.210;2023-04-01T16:57:19;11.10;99.90
2967;DHT22;1493;51.496;7.210;2023-04-01T16:59:55;11.10;99.90
2967;DHT22;1493;51.496;7.210;2023-04-01T17:02:26;11.10;99.90
2967;DHT22;1493;51.496;7.210;2023-04-01T17:05:00;11.10;99.90
2967;DHT22;1493;51.496;7.210;2023-04-01T17:07:38;11.00;99.90
2967;DHT22;1493;51.496;7.210;2023-04-01T17:10:28;11.00;99.90
2967;DHT22;1493;51.496;7.210;2023-04-01T17:13:11;11.10;99.90
2967;DHT22;1493;51.496;7.210;2023-04-01T17:15:46;11.10;99.90
2967;DHT22;1493;51.496;7.210;2023-04-01T17:18:24;11.00;99.90
2967;DHT22;1493;51.496;7.210;2023-04-01T17:21:01;11.00;99.90
2967;DHT22;1493;51.496;7.210;2023-04-01T17:23:32;11.00;99.90
2967;DHT22;1493;51.496;7.210;2023-04-01T17:26:09;11.00;99.90
2967;DHT22;1493;51.496;7.210;2023-04-01T17:28:48;10.90;99.90
2967;DHT22;1493;51.496;7.210;2023-04-01T17:31:26;10.90;99.90
2967;DHT22;1493;51.496;7.210;2023-04-01T17:34:31;10.90;99.90
2967;DHT22;1493;51.496;7.210;2023-04-01T17:37:10;10.90;99.90
2967;DHT22;1493;51.496;7.210;2023-04-01T17:39:46;10.90;99.90
2967;DHT22;1493;51.496;7.210;2023-04-01T17:42:19;11.00;99.90
2967;DHT22;1493;51.496;7.210;2023-04-01T17:44:53;10.90;99.90
2967;DHT22;1493;51.496;7.210;2023-04-01T17:47:32;11.00;99.90
2967;DHT22;1493;51.496;7.210;2023-04-01T17:50:22;10.90;99.90
2967;DHT22;1493;51.496;7.210;2023-04-01T17:53:02;10.90;99.90
2967;DHT22;1493;51.496;7.210;2023-04-01T17:55:43;10.90;99.90
2967;DHT22;1493;51.496;7.210;2023-04-01T17:58:18;10.80;99.90
2967;DHT22;1493;51.496;7.210;2023-04-01T18:01:01;10.80;99.90
2967;DHT22;1493;51.496;7.210;2023-04-01T18:03:44;10.80;99.90
2967;DHT22;1493;51.496;7.210;2023-04-01T18:06:19;10.80;99.90
2967;DHT22;1493;51.496;7.210;2023-04-01T18:08:57;10.90;99.90
2967;DHT22;1493;51.496;7.210;2023-04-01T18:11:39;10.90;99.90
2967;DHT22;1493;51.496;7.210;2023-04-01T18:14:49;10.80;99.90
2967;DHT22;1493;51.496;7.210;2023-04-01T18:17:24;10.80;99.90
2967;DHT22;1493;51.496;7.210;2023-04-01T18:20:08;10.90;99.90
2967;DHT22;1493;51.496;7.210;2023-04-01T18:22:44;10.80;99.90
2967;DHT22;1493;51.496;7.210;2023-04-01T18:25:19;10.90;99.90